Time;durP1;ratioP1;P1;durP2;ratioP2;P2;SDS_P1;SDS_P2;PMS_P1;PMS_P2;Temp;Humidity;BMP_temperature;BMP_pressure;BME280_temperature;BME280_humidity;BME280_pressure;Samples;Min_cycle;Max_cycle;Signal;HPM_P1;HPM_P2
2021/07/23 00:01:02;;;;;;;10.87;9.77;;;;;;;;;;4956724;29;20860;-90
2021/07/23 00:03:29;;;;;;;11.80;9.90;;;;;;;;;;4956236;29;20455;-88
2021/07/23 00:05:57;;;;;;;10.67;9.37;;;;;;;;;;4964422;29;20462;-89
2021/07/23 00:08:25;;;;;;;11.00;9.80;;;16.60;99.90;;;;;;4980642;28;20451;-90
2021/07/23 00:10:52;;;;;;;12.77;9.20;;;;;;;;;;4965371;28;20502;-90
2021/07/23 00:13:19;;;;;;;10.80;9.30;;;;;;;;;;4956443;29;20475;-90
2021/07/23 00:15:46;;;;;;;10.63;8.53;;;;;;;;;;4955803;29;20458;-90
2021/07/23 00:18:13;;;;;;;10.70;8.87;;;;;;;;;;4955054;28;20455;-89
2021/07/23 00:20:40;;;;;;;11.00;9.30;;;17.10;99.90;;;;;;4956004;28;20455;-90
2021/07/23 00:23:07;;;;;;;12.30;10.33;;;16.70;99.90;;;;;;4955796;29;20455;-90
2021/07/23 00:25:37;;;;;;;10.97;9.20;;;17.00;99.90;;;;;;4952919;29;20458;-89
2021/07/23 00:28:04;;;;;;;11.10;8.63;;;16.50;99.90;;;;;;4956045;29;20451;-89
2021/07/23 00:30:31;;;;;;;14.30;9.40;;;;;;;;;;4951547;29;20482;-90
2021/07/23 00:32:59;;;;;;;12.73;9.43;;;;;;;;;;4955433;29;20957;-89
2021/07/23 00:35:27;;;;;;;11.80;9.00;;;;;;;;;;4955419;28;20458;-90
2021/07/23 00:37:55;;;;;;;12.20;9.37;;;;;;;;;;4951642;29;20447;-89
2021/07/23 00:40:22;;;;;;;12.70;9.33;;;16.80;99.90;;;;;;4955628;29;20506;-89
2021/07/23 00:42:51;;;;;;;11.73;9.80;;;16.40;99.90;;;;;;4953033;29;20829;-89
2021/07/23 00:45:19;;;;;;;12.77;9.37;;;16.30;99.90;;;;;;4955742;29;20450;-89
2021/07/23 00:47:49;;;;;;;12.67;9.40;;;16.30;99.90;;;;;;4955820;29;20451;-90
2021/07/23 00:50:16;;;;;;;10.47;8.70;;;;;;;;;;4954815;29;20513;-89
2021/07/23 00:52:43;;;;;;;15.50;10.13;;;;;;;;;;4955474;29;20798;-89
2021/07/23 00:55:12;;;;;;;14.10;9.40;;;;;;;;;;4955399;29;20790;-91
2021/07/23 00:57:40;;;;;;;10.23;7.70;;;16.20;99.90;;;;;;4955422;29;20458;-90
2021/07/23 01:00:09;;;;;;;14.47;9.20;;;16.20;99.90;;;;;;4952590;29;20455;-89
2021/07/23 01:02:37;;;;;;;16.43;10.80;;;;;;;;;;4952488;29;20862;-89
2021/07/23 01:05:05;;;;;;;14.43;9.37;;;16.10;99.90;;;;;;4951270;29;20450;-90
2021/07/23 01:07:32;;;;;;;9.93;8.30;;;16.20;99.90;;;;;;4952321;29;20455;-89
2021/07/23 01:10:00;;;;;;;14.10;10.17;;;16.00;99.90;;;;;;4951267;29;20482;-89
2021/07/23 01:12:29;;;;;;;10.20;9.10;;;15.80;99.90;;;;;;4955233;28;20458;-90
2021/07/23 01:14:56;;;;;;;9.97;8.87;;;;;;;;;;4955255;29;20459;-88
2021/07/23 01:17:24;;;;;;;9.93;8.80;;;16.10;99.90;;;;;;4955113;29;20454;-90
2021/07/23 01:19:53;;;;;;;10.60;8.37;;;16.00;99.90;;;;;;4953951;29;20443;-89
2021/07/23 01:22:22;;;;;;;13.50;8.70;;;15.80;99.90;;;;;;4955241;29;20465;-89
2021/07/23 01:24:51;;;;;;;10.20;8.87;;;16.30;99.90;;;;;;4955372;29;20505;-89
2021/07/23 01:27:18;;;;;;;10.03;9.00;;;16.00;99.90;;;;;;4952880;29;20443;-89
2021/07/23 01:29:45;;;;;;;11.40;9.40;;;;;;;;;;4955054;29;20454;-91
2021/07/23 01:32:12;;;;;;;10.90;9.00;;;16.10;99.90;;;;;;4955425;29;20470;-88
2021/07/23 01:34:39;;;;;;;14.57;9.63;;;16.10;99.90;;;;;;4954243;29;20455;-89
2021/07/23 01:37:06;;;;;;;10.40;9.17;;;16.10;99.90;;;;;;4955383;29;20848;-89
2021/07/23 01:39:34;;;;;;;10.27;8.77;;;16.10;99.90;;;;;;4952090;29;20459;-88
2021/07/23 01:42:02;;;;;;;11.27;9.00;;;16.40;99.90;;;;;;4954970;29;20490;-90
2021/07/23 01:44:29;;;;;;;10.23;8.50;;;;;;;;;;4955797;29;20461;-89
2021/07/23 01:46:56;;;;;;;10.00;8.97;;;16.20;99.90;;;;;;4956127;29;20943;-89
2021/07/23 01:49:22;;;;;;;11.13;9.63;;;16.40;99.90;;;;;;4958081;29;20791;-89
2021/07/23 01:51:49;;;;;;;12.13;9.50;;;16.00;99.90;;;;;;4959820;29;20502;-90
2021/07/23 01:54:16;;;;;;;14.70;8.57;;;16.10;99.90;;;;;;4957437;29;20466;-90
2021/07/23 01:56:43;;;;;;;12.00;8.50;;;;;;;;;;4962254;29;20459;-89
2021/07/23 01:59:12;;;;;;;13.13;9.07;;;16.00;99.90;;;;;;4975584;29;20466;-89
2021/07/23 02:01:39;;;;;;;13.00;9.70;;;;;;;;;;4975400;29;20470;-90
2021/07/23 02:04:06;;;;;;;9.33;8.03;;;16.00;99.90;;;;;;4974547;29;20443;-89
2021/07/23 02:06:33;;;;;;;12.70;8.60;;;;;;;;;;4974376;29;20465;-89
2021/07/23 02:09:00;;;;;;;11.53;9.40;;;;;;;;;;4956502;29;20947;-89
2021/07/23 02:11:27;;;;;;;13.90;9.30;;;;;;;;;;4958370;29;20494;-89
2021/07/23 02:13:54;;;;;;;9.63;8.50;;;15.80;99.90;;;;;;4958140;29;20487;-90
2021/07/23 02:16:22;;;;;;;12.90;9.17;;;15.60;99.90;;;;;;4958177;29;20459;-91
2021/07/23 02:18:50;;;;;;;10.30;8.80;;;;;;;;;;4956862;29;20456;-89
2021/07/23 02:21:17;;;;;;;12.30;9.90;;;;;;;;;;4958009;29;20554;-89
2021/07/23 02:23:44;;;;;;;11.40;9.50;;;;;;;;;;4958256;29;20462;-88
2021/07/23 02:26:17;;;;;;;12.30;9.30;;;15.60;99.90;;;;;;4954497;29;20805;-90
2021/07/23 02:28:44;;;;;;;10.53;8.80;;;15.40;99.90;;;;;;4958094;29;20511;-89
2021/07/23 02:31:10;;;;;;;11.27;8.97;;;16.30;99.90;;;;;;4954739;29;20542;-90
2021/07/23 02:33:39;;;;;;;14.70;9.57;;;15.60;99.90;;;;;;4956752;29;20443;-90
2021/07/23 02:36:06;;;;;;;11.10;9.20;;;15.00;99.90;;;;;;4958886;29;20463;-89
2021/07/23 02:38:33;;;;;;;11.57;9.37;;;;;;;;;;4958208;29;20451;-90
2021/07/23 02:41:00;;;;;;;13.63;9.17;;;15.40;99.90;;;;;;4957389;28;20487;-89
2021/07/23 02:43:27;;;;;;;11.30;9.10;;;;;;;;;;4957538;29;20443;-90
2021/07/23 02:45:54;;;;;;;11.23;9.20;;;15.60;99.90;;;;;;4957634;29;20455;-89
2021/07/23 02:48:22;;;;;;;10.00;8.30;;;;;;;;;;4953754;29;20447;-88
2021/07/23 02:50:50;;;;;;;11.77;9.30;;;15.50;99.90;;;;;;4957970;29;20502;-89
2021/07/23 02:53:18;;;;;;;13.53;9.47;;;15.10;99.90;;;;;;4959159;29;20451;-88
2021/07/23 02:55:45;;;;;;;10.00;9.00;;;;;;;;;;4968281;28;20459;-89
2021/07/23 02:58:12;;;;;;;12.60;8.47;;;;;;;;;;4982237;28;20435;-89
2021/07/23 03:00:39;;;;;;;11.40;9.03;;;;;;;;;;4961078;28;20499;-89
2021/07/23 03:03:06;;;;;;;11.57;8.60;;;14.90;99.90;;;;;;4953999;29;20443;-89
2021/07/23 03:05:33;;;;;;;12.13;8.93;;;14.80;99.90;;;;;;4957044;29;20457;-90
2021/07/23 03:08:01;;;;;;;10.00;8.70;;;15.00;99.90;;;;;;4956987;29;20451;-89
2021/07/23 03:10:28;;;;;;;10.67;9.10;;;15.00;99.90;;;;;;4952989;29;20486;-90
2021/07/23 03:12:55;;;;;;;13.17;8.90;;;;;;;;;;4956978;29;20505;-90
2021/07/23 03:15:22;;;;;;;10.33;9.33;;;;;;;;;;4956898;29;21032;-90
2021/07/23 03:17:49;;;;;;;11.20;8.97;;;;;;;;;;4957324;29;20458;-89
2021/07/23 03:20:16;;;;;;;13.30;9.53;;;15.00;99.90;;;;;;4955896;29;20462;-89
2021/07/23 03:22:43;;;;;;;13.50;9.30;;;14.60;99.90;;;;;;4956725;29;20468;-89
2021/07/23 03:25:12;;;;;;;10.63;9.50;;;14.60;99.90;;;;;;4956854;29;20458;-88
2021/07/23 03:27:39;;;;;;;12.70;9.27;;;;;;;;;;4956774;29;20459;-88
2021/07/23 03:30:08;;;;;;;11.83;9.97;;;14.80;99.90;;;;;;4956543;29;20780;-90
2021/07/23 03:32:34;;;;;;;10.17;8.53;;;14.90;99.90;;;;;;4956769;29;20450;-90
2021/07/23 03:35:01;;;;;;;11.47;8.20;;;;;;;;;;4955371;29;20455;-89
2021/07/23 03:37:28;;;;;;;12.13;9.23;;;14.20;99.90;;;;;;4952718;29;20464;-90
2021/07/23 03:39:55;;;;;;;11.80;10.03;;;14.50;99.90;;;;;;4956241;29;20455;-88
2021/07/23 03:42:23;;;;;;;12.03;9.63;;;14.50;99.90;;;;;;4952433;29;20973;-90
2021/07/23 03:44:50;;;;;;;12.80;9.60;;;13.90;99.90;;;;;;4963425;28;20450;-89
2021/07/23 03:47:18;;;;;;;10.73;9.00;;;13.90;99.90;;;;;;4975739;28;20446;-88
2021/07/23 03:49:45;;;;;;;11.93;9.37;;;13.90;99.90;;;;;;4973271;28;20460;-89
2021/07/23 03:52:15;;;;;;;9.80;8.77;;;14.10;99.90;;;;;;4975167;28;20497;-88
2021/07/23 03:54:41;;;;;;;11.13;9.80;;;14.70;99.90;;;;;;4974924;28;20458;-86
2021/07/23 03:57:09;;;;;;;12.17;9.73;;;14.20;99.90;;;;;;4974673;28;20458;-87
2021/07/23 03:59:37;;;;;;;12.83;9.67;;;14.20;99.90;;;;;;4974573;28;20443;-90
2021/07/23 04:02:08;;;;;;;12.60;10.07;;;14.20;99.90;;;;;;4974792;28;20450;-89
2021/07/23 04:04:44;;;;;;;10.30;8.93;;;14.00;99.90;;;;;;4969298;28;20446;-89
2021/07/23 04:07:15;;;;;;;13.20;10.17;;;;;;;;;;4968980;28;20457;-87
2021/07/23 04:09:48;;;;;;;10.93;9.73;;;14.20;99.90;;;;;;4969889;28;20486;-88
2021/07/23 04:12:20;;;;;;;11.33;8.87;;;14.20;99.90;;;;;;4971014;28;20500;-89
2021/07/23 04:14:48;;;;;;;11.37;9.27;;;14.40;99.90;;;;;;4970461;28;20446;-88
2021/07/23 04:17:15;;;;;;;11.30;9.40;;;13.50;99.90;;;;;;4969334;28;20517;-88
2021/07/23 04:19:44;;;;;;;12.57;9.60;;;14.40;99.90;;;;;;4973476;28;20438;-87
2021/07/23 04:22:11;;;;;;;10.20;9.07;;;;;;;;;;4974585;28;20529;-89
2021/07/23 04:24:56;;;;;;;11.10;9.07;;;14.30;99.90;;;;;;4977184;28;20450;-89
2021/07/23 04:27:27;;;;;;;13.50;10.30;;;14.20;99.90;;;;;;4978768;28;20439;-89
2021/07/23 04:29:56;;;;;;;14.07;9.80;;;14.40;99.90;;;;;;4975904;28;20446;-87
2021/07/23 04:32:23;;;;;;;12.17;9.80;;;;;;;;;;4974819;28;20490;-88
2021/07/23 04:34:50;;;;;;;11.23;9.10;;;13.90;99.90;;;;;;4974355;28;20455;-88
2021/07/23 04:37:17;;;;;;;10.67;9.57;;;;;;;;;;4974434;28;20934;-89
2021/07/23 04:39:44;;;;;;;11.80;9.83;;;14.00;99.90;;;;;;4975952;28;20462;-88
2021/07/23 04:42:12;;;;;;;13.63;10.20;;;;;;;;;;4974698;28;20450;-90
2021/07/23 04:44:39;;;;;;;12.03;9.70;;;;;;;;;;4975339;28;20459;-89
2021/07/23 04:49:49;;;;;;;11.03;9.80;;;14.80;99.90;;;;;;4993034;28;20450;-89
2021/07/23 04:55:07;;;;;;;11.27;9.20;;;15.10;99.90;;;;;;4916214;29;20439;-89
2021/07/23 04:57:41;;;;;;;14.70;10.20;;;15.00;99.90;;;;;;4915221;29;20456;-90
2021/07/23 05:00:09;;;;;;;13.53;9.80;;;15.20;99.90;;;;;;4915241;29;20883;-89
2021/07/23 05:02:37;;;;;;;11.77;9.53;;;15.40;99.90;;;;;;4915662;29;20445;-88
2021/07/23 05:05:06;;;;;;;12.90;9.67;;;15.60;99.90;;;;;;4915429;29;20464;-89
2021/07/23 05:07:33;;;;;;;13.13;10.67;;;15.70;99.90;;;;;;4919597;29;20492;-89
2021/07/23 05:10:00;;;;;;;13.27;10.40;;;15.50;99.90;;;;;;4915103;29;20500;-89
2021/07/23 05:12:48;;;;;;;13.43;11.27;;;16.00;99.90;;;;;;4935773;28;20493;-88
2021/07/23 05:15:16;;;;;;;12.50;9.13;;;;;;;;;;4973955;28;20500;-88
2021/07/23 05:17:47;;;;;;;14.13;11.00;;;16.10;99.90;;;;;;4974607;28;20457;-89
2021/07/23 05:20:17;;;;;;;13.47;10.30;;;16.10;99.90;;;;;;4975890;28;20810;-87
2021/07/23 05:22:46;;;;;;;12.93;11.10;;;15.80;99.90;;;;;;4973815;28;20453;-88
2021/07/23 05:25:13;;;;;;;13.83;10.17;;;16.20;99.90;;;;;;4979334;28;20442;-88
2021/07/23 05:27:41;;;;;;;11.43;10.23;;;;;;;;;;4977907;28;20445;-88
2021/07/23 05:30:08;;;;;;;9.93;8.93;;;16.40;99.90;;;;;;4977594;28;20469;-88
2021/07/23 05:32:35;;;;;;;17.23;10.50;;;16.70;99.90;;;;;;4977262;28;20504;-87
2021/07/23 05:35:04;;;;;;;12.00;10.70;;;16.40;99.90;;;;;;4976542;28;20449;-89
2021/07/23 05:37:32;;;;;;;13.80;10.40;;;17.20;99.90;;;;;;4977612;28;20934;-89
2021/07/23 05:39:59;;;;;;;12.03;10.73;;;17.20;99.90;;;;;;4977447;28;20482;-88
2021/07/23 05:42:26;;;;;;;13.27;10.30;;;18.20;99.90;;;;;;4977504;28;20457;-88
2021/07/23 05:44:53;;;;;;;12.40;10.30;;;18.60;99.90;;;;;;4977578;28;20815;-87
2021/07/23 05:47:19;;;;;;;11.87;10.60;;;18.60;99.90;;;;;;4977468;28;20450;-88
2021/07/23 05:49:46;;;;;;;15.10;9.90;;;19.30;99.90;;;;;;4976162;28;20439;-88
2021/07/23 05:52:14;;;;;;;13.30;9.97;;;20.00;99.90;;;;;;4972373;28;21035;-88
2021/07/23 05:54:41;;;;;;;11.43;10.33;;;20.50;99.90;;;;;;4977399;28;20454;-87
2021/07/23 05:57:08;;;;;;;11.43;10.13;;;20.20;99.90;;;;;;4977076;28;20453;-88
2021/07/23 05:59:35;;;;;;;10.73;9.60;;;20.60;99.90;;;;;;4977499;28;20453;-88
2021/07/23 06:02:01;;;;;;;10.73;9.63;;;20.40;99.90;;;;;;4977457;28;20465;-88
2021/07/23 06:04:29;;;;;;;15.93;9.63;;;20.60;99.90;;;;;;4976179;28;20457;-88
2021/07/23 06:06:55;;;;;;;13.90;10.57;;;20.60;99.90;;;;;;4977178;28;20493;-89
2021/07/23 06:09:24;;;;;;;11.57;10.40;;;20.80;99.90;;;;;;4977161;28;20457;-88
2021/07/23 06:11:58;;;;;;;10.73;9.63;;;21.10;99.90;;;;;;4976510;28;20490;-89
2021/07/23 06:14:27;;;;;;;12.93;9.80;;;;;;;;;;4975032;28;20815;-88
2021/07/23 06:16:58;;;;;;;11.60;10.50;;;21.20;99.90;;;;;;4975667;28;20461;-88
2021/07/23 06:19:26;;;;;;;12.43;11.10;;;21.00;99.90;;;;;;4972543;28;20442;-85
2021/07/23 06:21:53;;;;;;;13.63;9.13;;;;;;;;;;4976419;28;20809;-87
2021/07/23 06:24:20;;;;;;;11.80;10.60;;;21.50;99.90;;;;;;4976920;28;20450;-88
2021/07/23 06:26:48;;;;;;;11.30;10.20;;;22.00;99.90;;;;;;4976761;28;20458;-88
2021/07/23 06:29:15;;;;;;;11.97;10.87;;;22.20;99.90;;;;;;4974360;28;20984;-88
2021/07/23 06:31:42;;;;;;;12.37;11.07;;;;;;;;;;4976572;28;20490;-90
2021/07/23 06:34:09;;;;;;;12.40;10.50;;;22.40;99.90;;;;;;4972813;28;20453;-87
2021/07/23 06:36:36;;;;;;;12.60;10.90;;;22.70;99.90;;;;;;4976932;28;20454;-91
2021/07/23 06:39:03;;;;;;;12.43;11.00;;;;;;;;;;4975417;28;20450;-91
2021/07/23 06:41:29;;;;;;;11.03;9.80;;;22.20;99.90;;;;;;4976548;28;21026;-89
2021/07/23 06:43:58;;;;;;;14.30;10.57;;;22.50;99.90;;;;;;4976555;28;20965;-89
2021/07/23 06:46:25;;;;;;;12.23;10.93;;;;;;;;;;4976553;28;20943;-87
2021/07/23 06:48:52;;;;;;;10.47;9.57;;;22.60;99.90;;;;;;4975337;28;20446;-88
2021/07/23 06:51:19;;;;;;;12.60;11.37;;;22.70;99.90;;;;;;4976567;28;20454;-90
2021/07/23 06:53:46;;;;;;;12.57;11.37;;;;;;;;;;4976420;28;20461;-89
2021/07/23 06:56:13;;;;;;;11.73;10.60;;;;;;;;;;4976319;28;20461;-87
2021/07/23 06:58:40;;;;;;;11.80;10.60;;;23.20;99.90;;;;;;4976167;28;20976;-88
2021/07/23 07:01:08;;;;;;;15.13;11.70;;;23.20;99.90;;;;;;4976144;28;20453;-87
2021/07/23 07:03:35;;;;;;;12.83;11.53;;;23.20;99.90;;;;;;4973774;28;20454;-88
2021/07/23 07:06:03;;;;;;;14.00;11.37;;;23.20;99.90;;;;;;4976272;28;20825;-90
2021/07/23 07:08:30;;;;;;;17.40;12.23;;;23.60;99.90;;;;;;4976041;28;20457;-88
2021/07/23 07:10:57;;;;;;;12.27;10.97;;;;;;;;;;4975742;28;20474;-89
2021/07/23 07:13:25;;;;;;;15.07;12.37;;;;;;;;;;4975995;28;20494;-89
2021/07/23 07:15:52;;;;;;;15.63;12.53;;;23.70;99.90;;;;;;4975947;28;20450;-89
2021/07/23 07:18:20;;;;;;;12.50;11.33;;;24.00;99.90;;;;;;4970958;28;20450;-86
2021/07/23 07:20:46;;;;;;;13.73;12.43;;;24.20;99.90;;;;;;4976045;28;20513;-87
2021/07/23 07:23:13;;;;;;;14.57;13.13;;;24.20;99.90;;;;;;4976187;28;20446;-88
2021/07/23 07:25:40;;;;;;;13.30;12.00;;;24.90;99.90;;;;;;4975748;28;20458;-87
2021/07/23 07:28:07;;;;;;;14.30;12.77;;;;;;;;;;4975795;28;20453;-87
2021/07/23 07:30:34;;;;;;;13.40;12.10;;;;;;;;;;4975793;28;20805;-88
2021/07/23 07:33:01;;;;;;;14.23;12.83;;;;;;;;;;4975366;28;20502;-87
2021/07/23 07:35:29;;;;;;;13.40;12.10;;;25.20;99.90;;;;;;4975205;28;20453;-89
2021/07/23 07:37:56;;;;;;;13.93;12.27;;;;;;;;;;4975447;28;20450;-88
2021/07/23 07:40:23;;;;;;;17.50;11.10;;;;;;;;;;4975310;28;20852;-87
2021/07/23 07:42:50;;;;;;;12.60;11.20;;;24.90;99.90;;;;;;4975502;28;20453;-87
2021/07/23 07:45:17;;;;;;;13.70;12.50;;;;;;;;;;4975426;28;20822;-87
2021/07/23 07:47:44;;;;;;;11.90;10.90;;;;;;;;;;4975372;28;20465;-87
2021/07/23 07:50:11;;;;;;;17.23;12.27;;;25.20;99.90;;;;;;4974141;28;20458;-87
2021/07/23 07:52:39;;;;;;;17.17;12.80;;;25.30;99.90;;;;;;4975027;28;20500;-87
2021/07/23 07:55:06;;;;;;;13.23;11.90;;;25.80;99.90;;;;;;4965529;28;20962;-86
2021/07/23 07:57:33;;;;;;;15.73;11.47;;;26.10;99.90;;;;;;4955680;29;20962;-86
2021/07/23 08:00:00;;;;;;;12.50;11.20;;;;;;;;;;4957816;28;20457;-86
2021/07/23 08:02:27;;;;;;;14.97;10.30;;;;;;;;;;4963201;28;20455;-87
2021/07/23 08:04:54;;;;;;;12.60;10.90;;;26.30;99.90;;;;;;4964717;28;20934;-87
2021/07/23 08:07:28;;;;;;;12.40;11.20;;;26.40;99.90;;;;;;4974780;28;20454;-89
2021/07/23 08:09:59;;;;;;;12.47;11.20;;;26.30;96.80;;;;;;4974866;28;20469;-88
2021/07/23 08:12:26;;;;;;;11.87;10.77;;;26.00;99.90;;;;;;4971830;28;20537;-88
2021/07/23 08:14:53;;;;;;;11.67;10.57;;;25.90;99.90;;;;;;4974803;28;20455;-87
2021/07/23 08:17:21;;;;;;;11.37;9.90;;;26.10;99.90;;;;;;4974881;28;20453;-87
2021/07/23 08:19:48;;;;;;;12.30;11.20;;;26.30;99.90;;;;;;4973471;28;20446;-87
2021/07/23 08:22:15;;;;;;;11.20;10.10;;;27.00;99.90;;;;;;4974713;28;20789;-87
2021/07/23 08:24:42;;;;;;;12.60;11.30;;;27.40;99.90;;;;;;4971942;28;20792;-87
2021/07/23 08:27:10;;;;;;;13.07;11.53;;;27.60;99.90;;;;;;4968249;28;20446;-88
2021/07/23 08:29:37;;;;;;;12.63;11.40;;;;;;;;;;4974610;28;20460;-86
2021/07/23 08:32:08;;;;;;;12.67;11.53;;;26.70;95.20;;;;;;4974582;28;20478;-87
2021/07/23 08:34:35;;;;;;;13.10;11.80;;;26.80;99.90;;;;;;4973469;28;20461;-89
2021/07/23 08:37:02;;;;;;;12.93;11.70;;;26.80;97.90;;;;;;4974932;28;20453;-90
2021/07/23 08:39:29;;;;;;;13.80;10.73;;;27.50;97.80;;;;;;4975194;28;20453;-89
2021/07/23 08:41:57;;;;;;;11.50;10.50;;;27.60;99.90;;;;;;4974620;28;20485;-90
2021/07/23 08:44:27;;;;;;;13.00;11.90;;;27.60;99.90;;;;;;4974626;28;21120;-88
2021/07/23 08:46:54;;;;;;;12.33;11.03;;;;;;;;;;4974623;28;20972;-92
2021/07/23 08:49:21;;;;;;;15.43;10.30;;;;;;;;;;4972889;28;20454;-86
2021/07/23 08:51:51;;;;;;;11.50;10.33;;;28.50;99.90;;;;;;4968149;28;20527;-89
2021/07/23 08:54:19;;;;;;;15.03;11.60;;;27.60;99.90;;;;;;4971468;28;20945;-89
2021/07/23 08:56:49;;;;;;;12.60;11.33;;;27.20;99.90;;;;;;4973427;28;20474;-86
2021/07/23 08:59:16;;;;;;;11.30;10.20;;;27.20;99.90;;;;;;4973794;28;20817;-87
2021/07/23 09:02:00;;;;;;;12.40;11.30;;;27.70;99.90;;;;;;4973717;28;20818;-88
2021/07/23 09:04:29;;;;;;;14.50;11.17;;;27.70;95.40;;;;;;4973488;28;20458;-90
2021/07/23 09:07:30;;;;;;;12.10;11.00;;;27.80;99.90;;;;;;4974466;28;20458;-91
2021/07/23 09:10:03;;;;;;;13.20;11.70;;;27.40;99.90;;;;;;4915102;29;20472;-91
2021/07/23 09:12:44;;;;;;;12.67;11.27;;;26.10;99.90;;;;;;4964761;28;20482;-88
2021/07/23 09:15:22;;;;;;;13.03;11.73;;;27.50;99.90;;;;;;4980777;28;20437;-96
2021/07/23 09:17:57;;;;;;;13.03;11.80;;;27.80;95.10;;;;;;4973656;28;20831;-96
2021/07/23 09:20:29;;;;;;;12.73;11.53;;;28.60;93.00;;;;;;4976437;28;20496;-95
2021/07/23 09:22:58;;;;;;;13.60;11.97;;;28.50;93.50;;;;;;4975651;28;20882;-89
2021/07/23 09:25:42;;;;;;;13.33;12.23;;;27.20;99.90;;;;;;4975206;28;20443;-92
2021/07/23 09:28:23;;;;;;;13.83;12.03;;;27.50;99.90;;;;;;4974931;28;20450;-92
2021/07/23 09:30:51;;;;;;;13.60;12.30;;;28.50;99.90;;;;;;4973877;28;20450;-91
2021/07/23 09:33:26;;;;;;;13.30;12.00;;;28.90;99.90;;;;;;4972847;28;20493;-92
2021/07/23 09:35:55;;;;;;;12.97;11.47;;;28.80;94.00;;;;;;4974442;28;20456;-91
2021/07/23 09:38:23;;;;;;;16.93;11.43;;;28.90;99.90;;;;;;4973231;28;20458;-92
2021/07/23 09:40:52;;;;;;;14.20;11.43;;;29.10;93.20;;;;;;4974347;28;20530;-92
2021/07/23 09:43:33;;;;;;;13.20;12.00;;;28.70;99.90;;;;;;4973203;28;20497;-92
2021/07/23 09:46:24;;;;;;;14.20;12.70;;;29.10;93.00;;;;;;4979378;28;20450;-92
2021/07/23 09:48:53;;;;;;;14.70;13.20;;;29.30;99.90;;;;;;4973409;28;20465;-94
2021/07/23 09:51:21;;;;;;;12.60;11.30;;;29.10;92.90;;;;;;4974432;28;20497;-91
2021/07/23 09:53:49;;;;;;;13.70;11.90;;;;;;;;;;4973907;28;20497;-92
2021/07/23 09:56:17;;;;;;;11.70;10.60;;;29.20;99.90;;;;;;4976459;28;20458;-93
2021/07/23 09:58:45;;;;;;;10.80;9.73;;;29.30;90.00;;;;;;4974692;28;20485;-92
2021/07/23 10:01:15;;;;;;;12.30;11.03;;;28.00;99.90;;;;;;4975446;28;20462;-94
2021/07/23 10:03:46;;;;;;;11.03;9.90;;;28.10;89.00;;;;;;4977540;28;20813;-93
2021/07/23 10:06:21;;;;;;;10.00;9.10;;;29.60;88.40;;;;;;4975645;28;20461;-92
2021/07/23 10:08:50;;;;;;;11.23;10.13;;;29.70;89.10;;;;;;4982637;28;20446;-93
2021/07/23 10:11:21;;;;;;;10.80;9.80;;;30.00;82.30;;;;;;4990107;28;20445;-92
2021/07/23 10:13:49;;;;;;;10.73;9.73;;;29.60;99.60;;;;;;4989691;28;20517;-92
2021/07/23 10:16:17;;;;;;;10.87;9.93;;;29.50;86.70;;;;;;4981326;28;20465;-92
2021/07/23 10:18:44;;;;;;;10.00;9.03;;;;;;;;;;4976995;28;21002;-88
2021/07/23 10:21:11;;;;;;;10.30;9.50;;;29.90;82.20;;;;;;4978044;28;20780;-89
2021/07/23 10:23:43;;;;;;;13.47;10.17;;;29.80;98.60;;;;;;4979993;28;20456;-92
2021/07/23 10:26:10;;;;;;;14.90;10.80;;;;;;;;;;4977328;28;20446;-93
2021/07/23 10:28:55;;;;;;;10.47;9.50;;;29.60;97.40;;;;;;4977358;28;20461;-92
2021/07/23 10:31:47;;;;;;;11.63;9.87;;;29.60;98.90;;;;;;4975031;28;20453;-92
2021/07/23 10:34:32;;;;;;;11.10;10.00;;;29.40;99.60;;;;;;4974921;28;20489;-88
2021/07/23 10:37:01;;;;;;;11.60;10.53;;;28.90;98.50;;;;;;4977246;28;20466;-89
2021/07/23 10:39:29;;;;;;;10.27;9.37;;;29.30;96.00;;;;;;4976814;28;20524;-91
2021/07/23 10:42:29;;;;;;;11.20;10.03;;;29.30;85.10;;;;;;4973894;28;20486;-91
2021/07/23 10:44:57;;;;;;;12.03;9.97;;;;;;;;;;4977945;28;20462;-95
2021/07/23 10:47:38;;;;;;;13.17;11.20;;;28.80;99.90;;;;;;4977646;28;20446;-92
2021/07/23 10:50:10;;;;;;;11.50;10.43;;;28.80;97.60;;;;;;4975435;28;20457;-91
2021/07/23 10:52:37;;;;;;;11.63;10.50;;;28.00;99.90;;;;;;4977162;28;20450;-92
2021/07/23 10:55:16;;;;;;;11.57;9.70;;;28.30;99.90;;;;;;4975400;28;20453;-92
2021/07/23 10:57:43;;;;;;;10.47;9.50;;;;;;;;;;4976670;28;20458;-92
2021/07/23 11:00:11;;;;;;;13.13;8.90;;;30.00;98.00;;;;;;4976702;28;20446;-94
2021/07/23 11:02:46;;;;;;;13.53;8.70;;;30.40;96.40;;;;;;4973801;28;20446;-90
2021/07/23 11:05:20;;;;;;;11.03;10.03;;;30.30;78.80;;;;;;4977249;28;20453;-92
2021/07/23 11:07:47;;;;;;;13.03;9.87;;;;;;;;;;4977103;28;20445;-93
2021/07/23 11:10:23;;;;;;;9.43;8.73;;;29.90;96.30;;;;;;4978777;28;20446;-89
2021/07/23 11:12:50;;;;;;;9.57;8.77;;;30.20;96.00;;;;;;4984346;28;20501;-90
2021/07/23 11:15:18;;;;;;;11.17;10.10;;;;;;;;;;4981099;28;20461;-91
2021/07/23 11:17:56;;;;;;;10.90;9.90;;;27.90;98.60;;;;;;4976762;28;20450;-90
2021/07/23 11:20:37;;;;;;;11.93;10.20;;;28.00;99.90;;;;;;4974951;28;20446;-92
2021/07/23 11:23:05;;;;;;;10.93;9.93;;;;;;;;;;4975361;28;20446;-91
2021/07/23 11:25:33;;;;;;;10.90;9.50;;;28.10;99.90;;;;;;4977780;28;20458;-91
2021/07/23 11:28:02;;;;;;;11.70;10.30;;;28.10;89.20;;;;;;4976312;28;20962;-95
2021/07/23 11:30:33;;;;;;;16.73;10.13;;;28.40;86.80;;;;;;4976496;28;20462;-93
2021/07/23 11:33:01;;;;;;;10.53;9.57;;;28.60;99.90;;;;;;4976354;28;21063;-89
2021/07/23 11:35:29;;;;;;;16.33;10.83;;;27.70;87.50;;;;;;4975430;28;20469;-91
2021/07/23 11:37:59;;;;;;;14.33;10.60;;;27.50;97.40;;;;;;4975609;28;20965;-88
2021/07/23 11:40:26;;;;;;;14.80;10.03;;;28.00;90.10;;;;;;4976402;28;20998;-89
2021/07/23 11:42:56;;;;;;;10.93;9.93;;;27.60;90.80;;;;;;4979807;28;20434;-95
2021/07/23 11:45:24;;;;;;;12.23;11.07;;;27.40;90.20;;;;;;4974956;28;20820;-89
2021/07/23 11:47:53;;;;;;;11.30;10.10;;;26.90;99.90;;;;;;4979198;28;20446;-90
2021/07/23 11:50:21;;;;;;;11.73;10.10;;;27.20;90.60;;;;;;4977006;28;20466;-91
2021/07/23 11:52:50;;;;;;;10.90;9.77;;;27.40;99.90;;;;;;4976887;28;20454;-86
2021/07/23 11:55:19;;;;;;;11.53;10.47;;;28.10;99.90;;;;;;4975644;28;20926;-88
2021/07/23 11:57:47;;;;;;;12.37;11.07;;;28.10;88.90;;;;;;4976475;28;20450;-89
2021/07/23 12:00:27;;;;;;;16.40;10.30;;;28.30;99.90;;;;;;4976396;28;20442;-93
2021/07/23 12:02:55;;;;;;;11.27;10.10;;;27.90;84.40;;;;;;4975700;28;20481;-89
2021/07/23 12:05:23;;;;;;;10.70;9.70;;;27.60;99.90;;;;;;4974923;28;20446;-90
2021/07/23 12:08:01;;;;;;;12.00;9.40;;;28.00;97.30;;;;;;4975576;28;20442;-89
2021/07/23 12:10:30;;;;;;;12.90;10.93;;;28.90;99.90;;;;;;4978899;28;20442;-89
2021/07/23 12:12:57;;;;;;;11.43;10.20;;;;;;;;;;4980058;28;20465;-92
2021/07/23 12:15:26;;;;;;;11.50;9.80;;;29.40;86.90;;;;;;4980560;28;20439;-93
2021/07/23 12:17:53;;;;;;;9.80;8.80;;;;;;;;;;4980313;28;20473;-96
2021/07/23 12:20:28;;;;;;;10.20;9.20;;;30.00;80.50;;;;;;4977441;28;20473;-95
2021/07/23 12:22:58;;;;;;;9.37;8.53;;;29.70;97.20;;;;;;4978774;28;20450;-96
2021/07/23 12:25:27;;;;;;;9.77;8.83;;;28.90;81.00;;;;;;4976586;28;20454;-96
2021/07/23 12:28:07;;;;;;;10.57;9.53;;;29.30;81.70;;;;;;4976143;28;20453;-92
2021/07/23 12:30:36;;;;;;;8.67;7.77;;;29.30;93.20;;;;;;4973313;28;20453;-92
2021/07/23 12:33:13;;;;;;;9.80;8.80;;;28.90;79.10;;;;;;4971931;28;20443;-93
2021/07/23 12:35:40;;;;;;;14.83;9.33;;;;;;;;;;4975706;28;20431;-95
2021/07/23 12:38:08;;;;;;;9.83;8.93;;;;;;;;;;4977247;28;20464;-93
2021/07/23 12:40:49;;;;;;;9.87;8.97;;;29.10;96.00;;;;;;4991970;28;20474;-96
2021/07/23 12:43:17;;;;;;;10.50;9.50;;;29.60;82.00;;;;;;4978736;28;20980;-96
2021/07/23 12:45:50;;;;;;;9.70;8.80;;;30.20;78.40;;;;;;4974351;28;20914;-95
2021/07/23 12:48:23;;;;;;;9.47;8.57;;;;;;;;;;4979908;23;20506;-89
2021/07/23 12:51:03;;;;;;;10.07;8.23;;;29.70;75.00;;;;;;4945627;29;20958;-96
2021/07/23 12:53:36;;;;;;;11.07;9.40;;;29.70;75.30;;;;;;4959547;29;20508;-92
2021/07/23 12:56:10;;;;;;;10.80;8.97;;;29.50;75.20;;;;;;4962956;29;20462;-95
2021/07/23 12:58:39;;;;;;;10.53;9.43;;;;;;;;;;4960744;29;20444;-96
2021/07/23 13:01:13;;;;;;;9.80;8.93;;;;;;;;;;4956386;29;20448;-96
2021/07/23 13:03:48;;;;;;;12.30;9.87;;;30.30;79.50;;;;;;4955558;29;20451;-93
2021/07/23 13:06:21;;;;;;;11.00;9.53;;;;;;;;;;4955316;29;20509;-94
2021/07/23 13:08:50;;;;;;;10.17;9.27;;;30.60;77.50;;;;;;4955840;29;20471;-91
2021/07/23 13:11:20;;;;;;;13.77;8.33;;;;;;;;;;4956533;29;20451;-93
2021/07/23 13:13:51;;;;;;;10.50;9.50;;;;;;;;;;4958103;29;20475;-91
2021/07/23 13:16:21;;;;;;;9.87;8.60;;;;;;;;;;4954838;29;20455;-92